Time;durP1;ratioP1;P1;durP2;ratioP2;P2;SDS_P1;SDS_P2;PMS_P1;PMS_P2;Temp;Humidity;BMP_temperature;BMP_pressure;BME280_temperature;BME280_humidity;BME280_pressure;Samples;Min_cycle;Max_cycle;Signal;HPM_P1;HPM_P2
2023/05/29 00:00:21;;;;;;;9.35;6.57;;;;;;;;;;5067582;28;20035;-72
2023/05/29 00:02:51;;;;;;;7.80;6.65;;;;;;;;;;5065988;28;20132;-73
2023/05/29 00:05:17;;;;;;;9.88;6.57;;;;;;;;;;5067162;28;20424;-73
2023/05/29 00:07:44;;;;;;;10.23;6.55;;;;;;;;;;5067508;28;20021;-74
2023/05/29 00:10:11;;;;;;;9.88;6.38;;;;;;;;;;5066831;28;20714;-73
2023/05/29 00:12:38;;;;;;;9.38;6.15;;;;;;;;;;5065820;28;20048;-73
2023/05/29 00:15:04;;;;;;;8.63;6.68;;;;;;;;;;5065477;28;20020;-72
2023/05/29 00:17:32;;;;;;;7.45;6.40;;;;;;;;;;5067260;28;20027;-73
2023/05/29 00:19:58;;;;;;;9.80;6.97;;;;;;;;;;5067153;28;20457;-74
2023/05/29 00:22:27;;;;;;;7.40;6.45;;;;;;;;;;5065870;28;20469;-73
2023/05/29 00:24:54;;;;;;;7.43;6.00;;;;;;;;;;5066374;28;20024;-73
2023/05/29 00:27:20;;;;;;;7.65;6.22;;;;;;;;;;5063520;28;20036;-72
2023/05/29 00:29:47;;;;;;;9.38;6.10;;;;;;;;;;5064789;28;20103;-72
2023/05/29 00:32:13;;;;;;;7.47;5.90;;;;;;;;;;5064515;28;20032;-73
2023/05/29 00:34:39;;;;;;;8.98;5.65;;;;;;;;;;5064391;28;20108;-72
2023/05/29 00:37:06;;;;;;;12.85;5.65;;;;;;;;;;5063170;28;20020;-73
2023/05/29 00:39:32;;;;;;;6.72;5.00;;;;;;;;;;5064514;28;20070;-73
2023/05/29 00:41:58;;;;;;;5.97;5.22;;;;;;;;;;5064681;28;20035;-75
2023/05/29 00:44:25;;;;;;;7.20;5.15;;;;;;;;;;5061307;28;20020;-72
2023/05/29 00:46:52;;;;;;;6.93;5.45;;;;;;;;;;5064668;28;20357;-73
2023/05/29 00:49:19;;;;;;;9.50;5.80;;;;;;;;;;5063512;28;20017;-72
2023/05/29 00:51:46;;;;;;;10.70;6.03;;;;;;;;;;5064403;28;20036;-71
2023/05/29 00:54:13;;;;;;;6.38;5.78;;;;;;;;;;5062659;28;20032;-72
2023/05/29 00:56:42;;;;;;;11.15;7.85;;;;;;;;;;5065225;28;20081;-72
2023/05/29 00:59:08;;;;;;;9.70;6.82;;;;;;;;;;5068544;28;20501;-72
2023/05/29 01:01:35;;;;;;;6.82;5.85;;;;;;;;;;5067820;28;20040;-74
2023/05/29 01:04:03;;;;;;;8.05;6.20;;;;;;;;;;5068494;28;20048;-72
2023/05/29 01:06:30;;;;;;;7.57;6.32;;;;;;;;;;5068712;28;20411;-72
2023/05/29 01:08:56;;;;;;;8.70;6.53;;;;;;;;;;5066859;28;20020;-73
2023/05/29 01:11:37;;;;;;;9.60;6.93;;;;;;;;;;5067984;28;20036;-73
2023/05/29 01:14:07;;;;;;;10.38;7.22;;;;;;;;;;5066011;28;20043;-72
2023/05/29 01:16:41;;;;;;;9.75;7.05;;;;;;;;;;5067187;28;20513;-72
2023/05/29 01:19:25;;;;;;;10.18;6.55;;;;;;;;;;5067000;28;20096;-72
2023/05/29 01:21:54;;;;;;;8.65;6.97;;;;;;;;;;5061171;28;20303;-72
2023/05/29 01:24:33;;;;;;;9.55;7.35;;;;;;;;;;5067836;28;20111;-72
2023/05/29 01:27:01;;;;;;;8.52;7.00;;;;;;;;;;5068132;28;20407;-72
2023/05/29 01:29:33;;;;;;;9.15;7.35;;;;;;;;;;5067949;28;20067;-72
2023/05/29 01:31:59;;;;;;;9.35;6.90;;;;;;;;;;5067736;28;20094;-73
2023/05/29 01:34:25;;;;;;;9.80;6.78;;;;;;;;;;5066107;28;20516;-72
2023/05/29 01:36:51;;;;;;;7.90;5.88;;;;;;;;;;5068298;28;20111;-74
2023/05/29 01:39:19;;;;;;;8.18;6.28;;;;;;;;;;5068128;28;20013;-75
2023/05/29 01:41:46;;;;;;;7.78;5.60;;;;;;;;;;5075489;28;20445;-72
2023/05/29 01:44:15;;;;;;;6.95;5.40;;;;;;;;;;5067314;28;20013;-77
2023/05/29 01:46:42;;;;;;;5.90;5.20;;;;;;;;;;5066124;28;20033;-73
2023/05/29 01:49:10;;;;;;;7.22;5.72;;;;;;;;;;5067904;28;20052;-72
2023/05/29 01:51:36;;;;;;;7.38;5.95;;;;;;;;;;5067504;28;20041;-77
2023/05/29 01:54:02;;;;;;;7.10;6.20;;;;;;;;;;5067475;28;20052;-73
2023/05/29 01:56:29;;;;;;;7.22;6.53;;;;;;;;;;5065995;28;20024;-72
2023/05/29 01:58:56;;;;;;;13.23;6.70;;;;;;;;;;5065835;28;20103;-72
2023/05/29 02:01:22;;;;;;;8.40;5.93;;;;;;;;;;5065364;28;20056;-72
2023/05/29 02:03:49;;;;;;;7.25;5.13;;;;;;;;;;5066010;28;20021;-72
2023/05/29 02:06:15;;;;;;;6.35;5.15;;;;;;;;;;5065922;28;20028;-73
2023/05/29 02:08:41;;;;;;;6.88;5.38;;;;;;;;;;5065822;28;20028;-72
2023/05/29 02:11:07;;;;;;;7.13;5.60;;;;;;;;;;5065924;28;20445;-72
2023/05/29 02:13:34;;;;;;;6.07;5.13;;;;;;;;;;5066323;28;20111;-74
2023/05/29 02:16:00;;;;;;;9.57;5.28;;;;;;;;;;5064779;28;20024;-72
2023/05/29 02:18:27;;;;;;;7.20;5.85;;;;;;;;;;5065590;28;20074;-72
2023/05/29 02:20:53;;;;;;;9.05;5.97;;;;;;;;;;5065879;28;20070;-72
2023/05/29 02:23:19;;;;;;;8.50;5.60;;;;;;;;;;5066095;28;20108;-72
2023/05/29 02:25:46;;;;;;;14.48;5.80;;;;;;;;;;5063990;28;20111;-72
2023/05/29 02:28:12;;;;;;;9.10;5.50;;;;;;;;;;5064441;28;20075;-73
2023/05/29 02:30:38;;;;;;;6.13;4.95;;;;;;;;;;5065757;28;20469;-73
2023/05/29 02:33:06;;;;;;;6.85;5.60;;;;;;;;;;5064199;28;20115;-72
2023/05/29 02:35:32;;;;;;;6.47;5.30;;;;;;;;;;5064031;28;20103;-72
2023/05/29 02:37:58;;;;;;;6.03;4.75;;;;;;;;;;5064842;28;20384;-73
2023/05/29 02:40:24;;;;;;;7.55;5.28;;;;;;;;;;5065960;28;20028;-74
2023/05/29 02:42:51;;;;;;;9.35;6.55;;;;;;;;;;5066033;28;20016;-72
2023/05/29 02:45:17;;;;;;;8.15;6.05;;;;;;;;;;5065264;28;20031;-73
2023/05/29 02:47:44;;;;;;;7.07;5.55;;;;;;;;;;5064110;28;20889;-78
2023/05/29 02:50:10;;;;;;;8.45;5.80;;;;;;;;;;5065613;28;20040;-73
2023/05/29 02:52:36;;;;;;;7.05;5.88;;;;;;;;;;5065756;28;20131;-75
2023/05/29 02:55:03;;;;;;;6.95;6.18;;;;;;;;;;5064893;28;20059;-72
2023/05/29 02:57:30;;;;;;;7.57;5.60;;;;;;;;;;5064271;28;20036;-72
2023/05/29 02:59:56;;;;;;;6.88;5.47;;;;;;;;;;5064771;28;20024;-72
2023/05/29 03:02:22;;;;;;;7.90;5.30;;;;;;;;;;5019414;28;1283107;-73
2023/05/29 03:04:52;;;;;;;6.13;5.13;;;;;;;;;;5066256;28;20031;-72
2023/05/29 03:07:18;;;;;;;6.25;5.20;;;;;;;;;;5065850;28;20031;-73
2023/05/29 03:09:44;;;;;;;6.82;5.72;;;;;;;;;;5064558;28;20396;-72
2023/05/29 03:12:11;;;;;;;7.30;5.60;;;;;;;;;;5064866;28;20115;-72
2023/05/29 03:14:37;;;;;;;5.95;5.07;;;;;;;;;;5065915;28;20115;-73
2023/05/29 03:17:07;;;;;;;7.22;5.78;;;;;;;;;;5066125;28;20101;-73
2023/05/29 03:19:34;;;;;;;5.95;5.35;;;;;;;;;;5065507;28;20119;-77
2023/05/29 03:22:00;;;;;;;7.38;5.30;;;;;;;;;;5064193;28;20039;-76
2023/05/29 03:24:27;;;;;;;6.93;5.38;;;;;;;;;;5065608;28;20048;-72
2023/05/29 03:26:53;;;;;;;5.63;4.82;;;;;;;;;;5065481;28;20408;-72
2023/05/29 03:29:19;;;;;;;9.07;5.75;;;;;;;;;;5065679;28;20103;-73
2023/05/29 03:31:46;;;;;;;6.75;5.78;;;;;;;;;;5065426;28;20029;-72
2023/05/29 03:34:13;;;;;;;6.97;5.32;;;;;;;;;;5065045;28;20021;-72
2023/05/29 03:36:39;;;;;;;8.35;6.00;;;;;;;;;;5064140;28;20024;-72
2023/05/29 03:39:06;;;;;;;5.90;5.30;;;;;;;;;;5065627;28;20021;-72
2023/05/29 03:41:32;;;;;;;6.75;5.38;;;;;;;;;;5065293;28;20025;-73
2023/05/29 03:43:58;;;;;;;6.80;5.50;;;;;;;;;;5063858;28;20112;-75
2023/05/29 03:46:25;;;;;;;7.53;5.00;;;;;;;;;;5065418;28;20031;-73
2023/05/29 03:48:51;;;;;;;11.85;5.50;;;;;;;;;;5064271;28;20422;-73
2023/05/29 03:51:17;;;;;;;8.38;5.68;;;;;;;;;;5063610;28;20031;-72
2023/05/29 03:53:43;;;;;;;7.80;5.35;;;;;;;;;;5065109;28;20036;-73
2023/05/29 03:56:09;;;;;;;6.03;5.20;;;;;;;;;;5063892;28;20023;-72
2023/05/29 03:58:38;;;;;;;10.05;5.18;;;;;;;;;;5065240;28;20025;-72
2023/05/29 04:01:05;;;;;;;7.55;5.20;;;;;;;;;;5057352;28;20064;-72
2023/05/29 04:03:32;;;;;;;6.57;4.63;;;;;;;;;;5065034;28;20021;-74
2023/05/29 04:05:58;;;;;;;5.72;4.80;;;;;;;;;;5063758;28;20424;-73
2023/05/29 04:08:25;;;;;;;6.15;5.13;;;;;;;;;;5065463;28;20016;-72
2023/05/29 04:10:53;;;;;;;6.47;5.20;;;;;;;;;;5065022;28;20020;-72
2023/05/29 04:13:20;;;;;;;8.52;5.82;;;;;;;;;;5061862;28;20020;-72
2023/05/29 04:15:47;;;;;;;6.95;5.95;;;;;;;;;;5065370;28;20020;-72
2023/05/29 04:18:13;;;;;;;6.47;5.75;;;;;;;;;;5064763;28;20109;-73
2023/05/29 04:20:39;;;;;;;7.53;6.40;;;;;;;;;;5064874;28;20017;-72
2023/05/29 04:23:05;;;;;;;13.10;9.63;;;;;;;;;;5071897;28;20020;-72
2023/05/29 04:25:32;;;;;;;17.15;11.80;;;;;;;;;;5064457;28;20094;-72
2023/05/29 04:28:01;;;;;;;13.95;10.48;;;;;;;;;;5063402;28;20033;-73
2023/05/29 04:30:28;;;;;;;14.65;10.48;;;;;;;;;;5064327;28;20040;-72
2023/05/29 04:32:54;;;;;;;13.80;9.98;;;;;;;;;;5063787;28;20605;-72
2023/05/29 04:35:21;;;;;;;14.10;10.10;;;;;;;;;;5064812;28;20063;-72
2023/05/29 04:37:48;;;;;;;16.65;9.73;;;;;;;;;;5062053;28;20082;-72
2023/05/29 04:40:17;;;;;;;11.35;9.05;;;;;;;;;;5064463;28;20297;-73
2023/05/29 04:42:46;;;;;;;14.75;8.68;;;;;;;;;;5064169;28;20047;-73
2023/05/29 04:45:13;;;;;;;12.10;9.25;;;;;;;;;;5057016;28;20100;-72
2023/05/29 04:47:45;;;;;;;10.45;8.32;;;;;;;;;;5064653;28;20085;-73
2023/05/29 04:50:16;;;;;;;9.82;7.50;;;;;;;;;;5056469;28;20024;-72
2023/05/29 04:52:43;;;;;;;7.70;6.15;;;;;;;;;;5062459;28;20039;-72
2023/05/29 04:55:10;;;;;;;11.82;7.38;;;;;;;;;;5064452;28;20021;-75
2023/05/29 04:57:36;;;;;;;13.68;6.68;;;;;;;;;;5064220;28;20212;-73
2023/05/29 05:00:13;;;;;;;9.95;8.20;;;;;;;;;;5064583;28;20043;-72
2023/05/29 05:02:42;;;;;;;13.93;9.05;;;;;;;;;;5063561;28;20045;-72
2023/05/29 05:05:08;;;;;;;13.23;9.50;;;;;;;;;;5063025;28;20016;-72
2023/05/29 05:07:34;;;;;;;14.52;9.90;;;;;;;;;;5064282;28;20082;-72
2023/05/29 05:10:01;;;;;;;16.05;10.50;;;;;;;;;;5064322;28;20021;-72
2023/05/29 05:12:27;;;;;;;11.05;8.85;;;;;;;;;;5063826;28;20120;-73
2023/05/29 05:14:53;;;;;;;12.40;8.40;;;;;;;;;;5062671;28;20644;-72
2023/05/29 05:17:20;;;;;;;12.38;8.60;;;;;;;;;;5064249;28;20576;-72
2023/05/29 05:19:48;;;;;;;11.20;8.23;;;;;;;;;;5064264;28;20040;-72
2023/05/29 05:22:14;;;;;;;17.17;7.80;;;;;;;;;;5071945;28;20025;-73
2023/05/29 05:24:41;;;;;;;12.75;7.93;;;;;;;;;;5061940;28;20033;-75
2023/05/29 05:27:07;;;;;;;9.95;6.65;;;;;;;;;;5058564;28;20038;-80
2023/05/29 05:29:33;;;;;;;10.27;7.50;;;;;;;;;;5063827;28;20450;-78
2023/05/29 05:32:00;;;;;;;9.70;7.60;;;;;;;;;;5062881;28;20033;-79
2023/05/29 05:34:26;;;;;;;13.95;7.97;;;;;;;;;;5070999;28;20056;-77
2023/05/29 05:36:52;;;;;;;11.30;7.78;;;;;;;;;;5063865;28;20100;-77
2023/05/29 05:39:19;;;;;;;11.25;8.02;;;;;;;;;;5062450;28;20598;-77
2023/05/29 05:41:45;;;;;;;9.75;7.47;;;;;;;;;;5063517;28;20146;-78
2023/05/29 05:44:11;;;;;;;12.45;7.63;;;;;;;;;;5066650;28;20090;-79
2023/05/29 05:46:37;;;;;;;16.45;8.68;;;;;;;;;;5067726;28;20098;-79
2023/05/29 05:49:03;;;;;;;12.20;8.30;;;;;;;;;;5067744;28;20040;-79
2023/05/29 05:51:30;;;;;;;12.40;9.57;;;;;;;;;;5064711;28;20129;-78
2023/05/29 05:53:57;;;;;;;12.60;9.00;;;;;;;;;;5072270;28;20016;-76
2023/05/29 05:56:23;;;;;;;13.80;8.93;;;;;;;;;;5067830;28;20111;-81
2023/05/29 05:58:50;;;;;;;11.45;9.10;;;;;;;;;;5065783;28;20060;-82
2023/05/29 06:01:16;;;;;;;19.42;10.40;;;;;;;;;;5067292;28;20048;-81
2023/05/29 06:03:42;;;;;;;10.10;7.65;;;;;;;;;;5067044;28;20059;-76
2023/05/29 06:06:08;;;;;;;12.20;8.48;;;;;;;;;;5065696;28;20021;-81
2023/05/29 06:08:35;;;;;;;14.38;9.40;;;;;;;;;;5067369;28;20032;-80
2023/05/29 06:11:01;;;;;;;12.50;8.85;;;;;;;;;;5066875;28;20495;-79
2023/05/29 06:13:27;;;;;;;17.02;10.10;;;;;;;;;;5067015;28;20121;-78
2023/05/29 06:15:53;;;;;;;10.65;9.55;;;;;;;;;;5067103;28;20035;-80
2023/05/29 06:18:20;;;;;;;16.25;10.27;;;;;;;;;;5065210;28;20085;-80
2023/05/29 06:20:46;;;;;;;14.40;9.23;;;;;;;;;;5067173;28;20535;-80
2023/05/29 06:23:13;;;;;;;17.85;10.45;;;;;;;;;;5066261;28;20038;-79
2023/05/29 06:25:39;;;;;;;15.27;11.38;;;;;;;;;;5066996;28;20082;-83
2023/05/29 06:28:08;;;;;;;13.27;11.07;;;;;;;;;;5067253;28;20082;-76
2023/05/29 06:30:34;;;;;;;18.50;11.82;;;;;;;;;;5064166;28;20059;-81
2023/05/29 06:33:00;;;;;;;13.82;10.88;;;;;;;;;;5066879;28;20025;-81
2023/05/29 06:35:26;;;;;;;11.00;9.90;;;;;;;;;;5066548;28;20020;-81
2023/05/29 06:37:53;;;;;;;13.52;10.40;;;;;;;;;;5066793;28;20071;-82
2023/05/29 06:40:19;;;;;;;12.77;9.60;;;;;;;;;;5067012;28;20036;-77
2023/05/29 06:42:45;;;;;;;13.00;8.80;;;;;;;;;;5066605;28;20020;-78
2023/05/29 06:45:15;;;;;;;13.63;9.43;;;;;;;;;;5065345;28;20012;-80
2023/05/29 06:47:44;;;;;;;11.57;8.90;;;;;;;;;;5066472;28;20044;-75
2023/05/29 06:50:10;;;;;;;12.23;9.50;;;;;;;;;;5067072;28;20041;-82
2023/05/29 06:52:36;;;;;;;12.90;9.77;;;;;;;;;;5066728;28;20039;-82
2023/05/29 06:55:03;;;;;;;12.00;8.93;;;;;;;;;;5063157;28;20413;-77
2023/05/29 06:57:29;;;;;;;15.18;8.68;;;;;;;;;;5066222;28;20028;-81
2023/05/29 06:59:55;;;;;;;11.40;9.30;;;;;;;;;;5066352;28;20027;-82
2023/05/29 07:02:22;;;;;;;12.02;8.55;;;;;;;;;;5065856;28;20044;-82
2023/05/29 07:04:48;;;;;;;9.90;8.02;;;;;;;;;;5063873;28;20021;-80
2023/05/29 07:07:14;;;;;;;12.95;8.55;;;;;;;;;;5065945;28;20090;-82
2023/05/29 07:09:40;;;;;;;9.82;7.82;;;;;;;;;;5066024;28;20020;-81
2023/05/29 07:12:06;;;;;;;12.52;8.57;;;;;;;;;;5065980;28;20028;-79
2023/05/29 07:14:33;;;;;;;12.20;8.43;;;;;;;;;;5065619;28;20644;-81
2023/05/29 07:17:00;;;;;;;10.35;7.72;;;;;;;;;;5064244;28;20044;-80
2023/05/29 07:19:26;;;;;;;15.77;8.50;;;;;;;;;;5065779;28;20023;-82
2023/05/29 07:21:52;;;;;;;9.02;7.57;;;;;;;;;;5065722;28;20024;-81
2023/05/29 07:24:19;;;;;;;11.07;7.70;;;;;;;;;;5065672;28;20024;-82
2023/05/29 07:26:45;;;;;;;11.07;7.82;;;;;;;;;;5063765;28;20098;-82
2023/05/29 07:29:12;;;;;;;12.60;8.68;;;;;;;;;;5065343;28;20023;-83
2023/05/29 07:31:40;;;;;;;14.70;8.60;;;;;;;;;;5065219;28;20041;-81
2023/05/29 07:34:06;;;;;;;18.55;8.98;;;;;;;;;;5063515;28;20028;-81
2023/05/29 07:36:32;;;;;;;11.13;8.20;;;;;;;;;;5072214;28;20525;-80
2023/05/29 07:38:58;;;;;;;9.80;7.57;;;;;;;;;;5065310;28;20127;-76
2023/05/29 07:41:26;;;;;;;12.52;8.70;;;;;;;;;;5065519;28;20020;-80
2023/05/29 07:43:52;;;;;;;11.10;7.97;;;;;;;;;;5065003;28;20020;-81
2023/05/29 07:46:19;;;;;;;13.30;8.50;;;;;;;;;;5065243;28;20020;-79
2023/05/29 07:48:46;;;;;;;10.77;7.90;;;;;;;;;;5063469;28;20037;-81
2023/05/29 07:51:13;;;;;;;12.02;8.25;;;;;;;;;;5065340;28;20487;-80
2023/05/29 07:53:39;;;;;;;10.68;8.32;;;;;;;;;;5064874;28;20024;-81
2023/05/29 07:56:06;;;;;;;11.25;8.18;;;;;;;;;;5064880;28;20012;-80
2023/05/29 07:58:33;;;;;;;11.38;10.20;;;;;;;;;;5063474;28;20059;-81
2023/05/29 08:00:59;;;;;;;31.45;20.35;;;;;;;;;;5065132;28;20041;-81
2023/05/29 08:03:25;;;;;;;18.95;12.20;;;;;;;;;;5064710;28;20769;-80
2023/05/29 08:05:52;;;;;;;18.17;13.18;;;;;;;;;;5064366;28;20103;-79
2023/05/29 08:08:19;;;;;;;18.25;10.27;;;;;;;;;;5064614;28;20059;-80
2023/05/29 08:10:45;;;;;;;13.32;9.25;;;;;;;;;;5063916;28;20461;-80
2023/05/29 08:13:11;;;;;;;13.50;9.25;;;;;;;;;;5062953;28;20024;-80
2023/05/29 08:15:38;;;;;;;11.63;7.75;;;;;;;;;;5072191;28;20048;-81
2023/05/29 08:18:04;;;;;;;9.20;7.47;;;;;;;;;;5064159;28;20070;-81
2023/05/29 08:20:31;;;;;;;9.73;7.63;;;;;;;;;;5063087;28;20416;-82
2023/05/29 08:22:57;;;;;;;6.53;5.53;;;;;;;;;;5063180;28;20491;-79
2023/05/29 08:25:23;;;;;;;11.02;6.43;;;;;;;;;;5062620;28;20024;-79
2023/05/29 08:27:49;;;;;;;10.48;6.45;;;;;;;;;;5064026;28;20423;-81
2023/05/29 08:30:16;;;;;;;9.93;6.35;;;;;;;;;;5064481;28;20075;-81
2023/05/29 08:32:42;;;;;;;7.78;6.13;;;;;;;;;;5056271;28;20831;-81
2023/05/29 08:35:08;;;;;;;5.90;5.30;;;;;;;;;;5063736;28;20024;-81
2023/05/29 08:37:35;;;;;;;7.18;5.00;;;;;;;;;;5062970;28;20568;-81
2023/05/29 08:40:07;;;;;;;8.30;5.90;;;;;;;;;;5064461;28;20523;-80
2023/05/29 08:42:36;;;;;;;7.47;5.90;;;;;;;;;;5064273;28;20031;-79
2023/05/29 08:45:04;;;;;;;6.70;4.97;;;;;;;;;;5064166;28;20109;-81
2023/05/29 08:47:33;;;;;;;6.65;5.25;;;;;;;;;;5064545;28;20031;-80
2023/05/29 08:50:01;;;;;;;5.45;4.45;;;;;;;;;;5064388;28;20100;-81
2023/05/29 08:52:28;;;;;;;6.85;5.50;;;;;;;;;;5062598;28;20123;-78
2023/05/29 08:54:55;;;;;;;6.32;5.20;;;;;;;;;;5063795;28;20027;-81
2023/05/29 08:57:22;;;;;;;7.10;5.63;;;;;;;;;;5063979;28;20029;-80
2023/05/29 08:59:51;;;;;;;9.23;5.55;;;;;;;;;;5062669;28;20017;-78
2023/05/29 09:02:18;;;;;;;7.43;5.32;;;;;;;;;;5064136;28;20044;-83
2023/05/29 09:04:52;;;;;;;8.27;5.90;;;;;;;;;;5063719;28;20029;-80
2023/05/29 09:07:19;;;;;;;7.70;5.68;;;;;;;;;;5062847;28;20099;-79
2023/05/29 09:09:48;;;;;;;6.10;5.50;;;;;;;;;;5071562;28;20055;-79
2023/05/29 09:12:15;;;;;;;6.90;5.20;;;;;;;;;;5065419;28;20047;-81
2023/05/29 09:14:45;;;;;;;7.65;5.68;;;;;;;;;;5063742;28;20047;-82
2023/05/29 09:17:12;;;;;;;6.47;5.32;;;;;;;;;;5064071;28;20024;-81
2023/05/29 09:19:40;;;;;;;6.43;5.68;;;;;;;;;;5066188;28;20057;-81
2023/05/29 09:22:10;;;;;;;10.63;6.32;;;;;;;;;;5067817;28;20028;-81
2023/05/29 09:24:37;;;;;;;6.88;5.80;;;;;;;;;;5066036;28;20032;-80
2023/05/29 09:27:07;;;;;;;7.78;5.57;;;;;;;;;;5067537;28;20257;-81
2023/05/29 09:29:43;;;;;;;6.20;5.60;;;;;;;;;;5066404;28;20633;-78
2023/05/29 09:32:11;;;;;;;8.13;6.10;;;;;;;;;;5067212;28;20037;-80
2023/05/29 09:34:37;;;;;;;7.28;5.72;;;;;;;;;;5065592;28;20016;-79
2023/05/29 09:37:11;;;;;;;8.75;5.30;;;;;;;;;;5066072;28;20426;-76
2023/05/29 09:39:48;;;;;;;8.88;6.57;;;;;;;;;;5067692;28;20052;-80
2023/05/29 09:42:17;;;;;;;7.28;5.63;;;;;;;;;;5067630;28;20091;-81
2023/05/29 09:44:46;;;;;;;6.60;5.32;;;;;;;;;;5067084;28;20036;-79
2023/05/29 09:47:22;;;;;;;8.57;5.47;;;;;;;;;;5067512;28;20074;-81
2023/05/29 09:49:48;;;;;;;7.95;5.57;;;;;;;;;;5066607;28;20548;-80
2023/05/29 09:52:15;;;;;;;8.20;5.75;;;;;;;;;;5065846;28;20358;-81
2023/05/29 09:54:48;;;;;;;6.63;5.80;;;;;;;;;;5067210;28;20903;-81
2023/05/29 09:57:15;;;;;;;5.90;5.18;;;;;;;;;;5066808;28;20024;-81
2023/05/29 09:59:43;;;;;;;6.63;5.60;;;;;;;;;;5067485;28;20503;-80
2023/05/29 10:02:12;;;;;;;7.78;5.90;;;;;;;;;;5067020;28;20507;-80
2023/05/29 10:04:40;;;;;;;6.57;5.82;;;;;;;;;;5065232;28;20052;-79
2023/05/29 10:07:11;;;;;;;7.30;5.22;;;;;;;;;;5067112;28;20056;-80
2023/05/29 10:09:43;;;;;;;6.50;5.78;;;;;;;;;;5066677;28;20021;-77
2023/05/29 10:12:11;;;;;;;7.63;4.90;;;;;;;;;;5066579;28;20124;-81
2023/05/29 10:14:38;;;;;;;6.78;5.30;;;;;;;;;;5064912;28;20107;-81
2023/05/29 10:17:08;;;;;;;7.30;5.53;;;;;;;;;;5067014;28;20638;-80
2023/05/29 10:19:36;;;;;;;7.65;5.32;;;;;;;;;;5065196;28;20025;-81
2023/05/29 10:22:02;;;;;;;8.35;5.68;;;;;;;;;;5066798;28;20051;-81
2023/05/29 10:24:29;;;;;;;6.65;5.55;;;;;;;;;;5066616;28;20021;-79
2023/05/29 10:26:56;;;;;;;7.53;5.90;;;;;;;;;;5072933;28;20341;-77
2023/05/29 10:29:44;;;;;;;6.07;5.18;;;;;;;;;;5066429;28;20125;-82
2023/05/29 10:32:13;;;;;;;6.47;5.13;;;;;;;;;;5058689;28;20029;-81
2023/05/29 10:34:58;;;;;;;8.13;5.22;;;;;;;;;;5066256;28;20029;-80
2023/05/29 10:37:35;;;;;;;5.55;4.93;;;;;;;;;;5066298;28;20063;-79
2023/05/29 10:40:06;;;;;;;6.65;5.13;;;;;;;;;;5059025;28;20020;-81
2023/05/29 10:58:05;;;;;;;7.20;5.75;;;;;;;;;;5131250;27;20983;-83
2023/05/29 11:00:31;;;;;;;7.38;6.30;;;;;;;;;;5131552;27;20463;-84
2023/05/29 11:14:10;;;;;;;6.63;6.00;;;;;;;;;;5131157;27;20372;-87
2023/05/29 11:16:39;;;;;;;6.70;6.10;;;;;;;;;;5132714;28;20059;-87
2023/05/29 11:19:06;;;;;;;6.53;5.88;;;;;;;;;;5128198;28;20023;-83
2023/05/29 11:21:49;;;;;;;5.97;5.32;;;;;;;;;;5112039;28;20039;-87
2023/05/29 11:24:25;;;;;;;6.97;5.78;;;;;;;;;;5111525;28;20429;-88
2023/05/29 11:26:55;;;;;;;6.22;5.63;;;;;;;;;;5111730;28;20027;-88
2023/05/29 11:29:22;;;;;;;6.43;5.40;;;;;;;;;;5111726;28;20487;-88
2023/05/29 11:31:50;;;;;;;13.60;6.25;;;;;;;;;;5110779;28;20107;-88
2023/05/29 11:34:16;;;;;;;5.88;5.38;;;;;;;;;;5111422;28;20020;-88
2023/05/29 11:36:43;;;;;;;8.50;6.68;;;;;;;;;;5111444;28;20035;-86
2023/05/29 11:39:10;;;;;;;7.38;5.50;;;;;;;;;;5111401;28;20069;-87
2023/05/29 11:41:36;;;;;;;6.90;5.85;;;;;;;;;;5110736;28;20114;-87
2023/05/29 11:44:05;;;;;;;13.02;7.05;;;;;;;;;;5111043;28;20560;-85
2023/05/29 11:46:32;;;;;;;7.28;6.10;;;;;;;;;;5111259;28;20031;-88
2023/05/29 11:48:58;;;;;;;8.55;6.18;;;;;;;;;;5111722;28;20023;-87
2023/05/29 11:51:25;;;;;;;8.10;6.18;;;;;;;;;;5111177;28;20027;-88
2023/05/29 11:53:58;;;;;;;8.02;6.22;;;;;;;;;;5111187;28;20020;-88
2023/05/29 11:56:27;;;;;;;8.77;7.25;;;;;;;;;;5110600;28;20046;-88
2023/05/29 11:58:59;;;;;;;6.70;5.68;;;;;;;;;;5111079;28;20023;-86
2023/05/29 12:01:25;;;;;;;;;;;;;;;;;;5111154;28;20065;-86
2023/05/29 12:03:52;;;;;;;7.78;6.35;;;;;;;;;;5110234;28;19983;-85
2023/05/29 12:06:35;;;;;;;8.38;6.60;;;;;;;;;;5111017;28;20030;-87
2023/05/29 12:09:03;;;;;;;8.90;6.15;;;;;;;;;;5110760;28;20081;-86
2023/05/29 12:11:30;;;;;;;6.72;5.88;;;;;;;;;;5110529;28;20035;-87
2023/05/29 12:13:59;;;;;;;7.43;6.53;;;;;;;;;;5103367;28;20071;-87
2023/05/29 12:16:26;;;;;;;6.55;5.68;;;;;;;;;;5097488;28;20091;-88
2023/05/29 12:18:52;;;;;;;9.40;6.38;;;;;;;;;;5097224;28;20020;-87
2023/05/29 12:21:20;;;;;;;8.95;6.20;;;;;;;;;;5095483;28;20016;-86
2023/05/29 12:23:46;;;;;;;8.40;6.22;;;;;;;;;;5095716;28;20471;-87
2023/05/29 12:26:13;;;;;;;7.90;7.15;;;;;;;;;;5096925;28;20097;-87
2023/05/29 12:28:45;;;;;;;8.38;6.72;;;;;;;;;;5116856;28;20046;-86
2023/05/29 12:31:12;;;;;;;6.82;6.15;;;;;;;;;;5117398;28;20088;-87
2023/05/29 12:33:43;;;;;;;8.43;6.40;;;;;;;;;;5115149;28;20032;-86
2023/05/29 12:36:10;;;;;;;8.32;6.35;;;;;;;;;;5114284;28;20023;-86
2023/05/29 12:38:47;;;;;;;6.82;6.22;;;;;;;;;;5116849;28;20521;-86
2023/05/29 12:41:26;;;;;;;8.23;6.35;;;;;;;;;;5116869;28;20028;-87
2023/05/29 12:43:56;;;;;;;12.48;6.57;;;;;;;;;;5116782;28;20494;-85
2023/05/29 12:46:22;;;;;;;7.78;6.13;;;;;;;;;;5116311;28;20068;-87
2023/05/29 12:48:49;;;;;;;6.78;6.00;;;;;;;;;;5116759;28;20051;-86
2023/05/29 12:51:16;;;;;;;11.10;6.13;;;;;;;;;;5116508;28;20463;-78
2023/05/29 12:53:42;;;;;;;9.40;6.75;;;;;;;;;;5114838;28;20024;-77
2023/05/29 12:56:08;;;;;;;12.20;7.25;;;;;;;;;;5111021;28;20024;-78
2023/05/29 12:58:35;;;;;;;8.98;6.97;;;;;;;;;;5111376;28;20077;-77
2023/05/29 13:01:01;;;;;;;13.75;8.20;;;;;;;;;;5114786;28;20032;-76
2023/05/29 13:03:27;;;;;;;8.40;6.70;;;;;;;;;;5114826;28;20036;-76
2023/05/29 13:05:53;;;;;;;7.38;6.65;;;;;;;;;;5115471;28;20020;-75
2023/05/29 13:08:20;;;;;;;7.90;7.07;;;;;;;;;;5114771;28;20398;-76
2023/05/29 13:10:46;;;;;;;8.10;6.15;;;;;;;;;;5115428;28;20024;-77
2023/05/29 13:13:13;;;;;;;7.30;5.97;;;;;;;;;;5112999;28;20487;-75
2023/05/29 13:15:40;;;;;;;6.80;6.20;;;;;;;;;;5115163;27;20024;-76
2023/05/29 13:18:06;;;;;;;7.20;6.50;;;;;;;;;;5115438;28;20076;-76
2023/05/29 13:20:33;;;;;;;6.68;6.07;;;;;;;;;;5115209;28;20030;-76
2023/05/29 13:22:59;;;;;;;6.32;5.72;;;;;;;;;;5115213;28;20028;-77
2023/05/29 13:25:25;;;;;;;6.57;5.85;;;;;;;;;;5112542;28;20043;-77
2023/05/29 13:27:52;;;;;;;7.10;6.35;;;;;;;;;;5114932;28;20463;-76
2023/05/29 13:30:18;;;;;;;9.00;6.65;;;;;;;;;;5115194;28;20034;-76
2023/05/29 13:32:45;;;;;;;8.93;6.65;;;;;;;;;;5115382;27;20023;-76
2023/05/29 13:35:11;;;;;;;9.23;6.68;;;;;;;;;;5114811;28;20497;-76
2023/05/29 13:37:38;;;;;;;7.47;6.07;;;;;;;;;;5113352;28;20051;-75
2023/05/29 13:40:05;;;;;;;8.18;6.30;;;;;;;;;;5114222;28;20073;-76
2023/05/29 13:42:31;;;;;;;7.70;6.72;;;;;;;;;;5114722;28;20044;-76
2023/05/29 13:44:58;;;;;;;9.35;7.07;;;;;;;;;;5114703;28;20475;-76
2023/05/29 13:47:26;;;;;;;10.77;6.85;;;;;;;;;;5113323;28;20053;-75
2023/05/29 13:49:53;;;;;;;7.95;7.15;;;;;;;;;;5114596;28;20406;-76
2023/05/29 13:52:19;;;;;;;7.00;6.30;;;;;;;;;;5114556;28;20055;-76
2023/05/29 13:54:46;;;;;;;7.75;6.45;;;;;;;;;;5114332;28;20031;-76
2023/05/29 13:57:12;;;;;;;7.65;6.20;;;;;;;;;;5113147;28;20027;-76
2023/05/29 13:59:38;;;;;;;9.95;6.78;;;;;;;;;;5112699;28;20110;-76
2023/05/29 14:02:05;;;;;;;8.30;7.00;;;;;;;;;;5113809;28;20023;-76
2023/05/29 14:04:31;;;;;;;9.70;6.18;;;;;;;;;;5113896;28;20031;-77
2023/05/29 14:06:58;;;;;;;10.43;6.97;;;;;;;;;;5113805;28;20058;-77
2023/05/29 14:09:27;;;;;;;7.10;6.40;;;;;;;;;;5114408;28;20027;-78
2023/05/29 14:11:57;;;;;;;7.65;6.88;;;;;;;;;;5113805;28;20451;-76
2023/05/29 14:14:23;;;;;;;7.75;6.85;;;;;;;;;;5112148;28;20023;-76
2023/05/29 14:16:51;;;;;;;6.95;6.32;;;;;;;;;;5113498;28;20460;-76
2023/05/29 14:19:17;;;;;;;8.77;6.80;;;;;;;;;;5113887;28;20152;-76
2023/05/29 14:21:44;;;;;;;8.68;7.28;;;;;;;;;;5113849;28;20383;-76
2023/05/29 14:24:10;;;;;;;11.65;7.20;;;;;;;;;;5112218;28;20552;-75
2023/05/29 14:26:36;;;;;;;8.93;7.45;;;;;;;;;;5113699;28;20023;-77
2023/05/29 14:29:03;;;;;;;8.35;6.90;;;;;;;;;;5108612;28;20073;-75
2023/05/29 14:31:29;;;;;;;8.90;7.25;;;;;;;;;;5092206;28;20028;-76
2023/05/29 14:33:56;;;;;;;9.43;7.00;;;;;;;;;;5096672;28;20024;-77
2023/05/29 14:36:23;;;;;;;9.80;7.47;;;;;;;;;;5107939;28;20092;-77
2023/05/29 14:38:49;;;;;;;8.52;6.85;;;;;;;;;;5094630;28;20043;-76
2023/05/29 14:41:15;;;;;;;9.05;7.43;;;;;;;;;;5094925;28;20031;-77
2023/05/29 14:43:45;;;;;;;8.18;7.38;;;;;;;;;;5113189;28;20063;-77
2023/05/29 14:46:11;;;;;;;13.52;7.43;;;;;;;;;;5112172;28;20066;-77
2023/05/29 14:48:37;;;;;;;10.85;7.57;;;;;;;;;;5111907;28;20133;-77
2023/05/29 14:51:04;;;;;;;8.48;7.30;;;;;;;;;;5112737;28;20571;-77
2023/05/29 14:53:31;;;;;;;9.18;7.10;;;;;;;;;;5113455;28;20046;-77
2023/05/29 14:55:57;;;;;;;8.80;7.55;;;;;;;;;;5111876;28;20023;-78
2023/05/29 14:58:24;;;;;;;8.70;7.80;;;;;;;;;;5113017;28;20025;-77
2023/05/29 15:00:50;;;;;;;9.23;7.35;;;;;;;;;;5113175;28;20032;-77
2023/05/29 15:03:16;;;;;;;8.32;7.53;;;;;;;;;;5111903;28;20036;-77
2023/05/29 15:05:42;;;;;;;7.78;7.00;;;;;;;;;;5111871;28;20065;-77